createdAt,value
2024-01-15T00:02:02.352Z,100.00
2024-01-15T00:04:29.332Z,100.00
2024-01-15T00:06:56.108Z,100.00
2024-01-15T00:09:22.787Z,100.00
2024-01-15T00:11:49.373Z,100.00
2024-01-15T00:14:21.086Z,100.00
2024-01-15T00:16:50.089Z,100.00
2024-01-15T00:19:16.896Z,100.00
2024-01-15T00:21:43.789Z,100.00
2024-01-15T00:24:10.650Z,100.00
2024-01-15T00:26:37.567Z,100.00
2024-01-15T00:29:04.612Z,100.00
2024-01-15T00:31:31.361Z,100.00
2024-01-15T00:33:58.961Z,100.00
2024-01-15T00:36:25.621Z,100.00
2024-01-15T00:38:52.572Z,100.00
2024-01-15T00:41:19.604Z,100.00
2024-01-15T00:43:50.371Z,100.00
2024-01-15T00:46:16.928Z,100.00
2024-01-15T00:48:43.576Z,100.00
2024-01-15T00:51:10.245Z,100.00
2024-01-15T00:53:36.749Z,100.00
2024-01-15T00:56:04.292Z,100.00
2024-01-15T00:58:30.832Z,100.00
2024-01-15T01:00:57.539Z,100.00
2024-01-15T01:03:24.206Z,100.00
2024-01-15T01:05:51.227Z,100.00
2024-01-15T01:08:18.881Z,100.00
2024-01-15T01:10:45.858Z,100.00
2024-01-15T01:13:12.323Z,100.00
2024-01-15T01:15:39.810Z,100.00
2024-01-15T01:18:06.645Z,100.00
2024-01-15T01:20:33.450Z,100.00
2024-01-15T01:23:00.803Z,100.00
2024-01-15T01:25:27.386Z,100.00
2024-01-15T01:27:53.887Z,100.00
2024-01-15T01:30:20.556Z,100.00
2024-01-15T01:32:47.146Z,100.00
2024-01-15T01:35:13.960Z,100.00
2024-01-15T01:37:40.428Z,99.98
2024-01-15T01:40:07.631Z,99.54
2024-01-15T01:42:34.183Z,97.47
2024-01-15T01:45:00.732Z,97.65
2024-01-15T01:47:27.834Z,97.18
2024-01-15T01:49:55.194Z,97.00
2024-01-15T01:52:21.927Z,96.93
2024-01-15T01:54:49.002Z,97.51
2024-01-15T01:57:16.501Z,97.86
2024-01-15T01:59:43.162Z,97.02
2024-01-15T02:02:09.708Z,96.17
2024-01-15T02:04:38.035Z,97.15
2024-01-15T02:07:05.506Z,96.95
2024-01-15T02:09:33.390Z,98.00
2024-01-15T02:12:00.336Z,98.02
2024-01-15T02:14:26.994Z,96.90
2024-01-15T02:16:53.618Z,96.76
2024-01-15T02:19:20.331Z,97.25
2024-01-15T02:21:47.200Z,97.94
2024-01-15T02:24:14.074Z,97.28
2024-01-15T02:26:40.622Z,97.46
2024-01-15T02:29:09.843Z,96.86
2024-01-15T02:31:37.875Z,98.01
2024-01-15T02:34:04.748Z,97.74
2024-01-15T02:36:31.626Z,97.18
2024-01-15T02:38:58.432Z,98.10
2024-01-15T02:41:25.038Z,97.99
2024-01-15T02:43:51.580Z,99.07
2024-01-15T02:46:18.262Z,99.39
2024-01-15T02:48:45.008Z,98.81
2024-01-15T02:51:11.688Z,98.17
2024-01-15T02:53:38.481Z,97.21
2024-01-15T02:56:05.220Z,98.10
2024-01-15T02:58:32.175Z,97.45
2024-01-15T03:00:59.317Z,96.49
2024-01-15T03:03:26.217Z,95.43
2024-01-15T03:05:53.109Z,94.86
2024-01-15T03:08:19.679Z,96.23
2024-01-15T03:10:46.163Z,95.45
2024-01-15T03:13:12.620Z,95.15
2024-01-15T03:15:39.137Z,96.34
2024-01-15T03:18:06.062Z,95.91
2024-01-15T03:20:32.639Z,96.36
2024-01-15T03:22:59.091Z,97.00
2024-01-15T03:25:25.656Z,95.82
2024-01-15T03:27:52.173Z,96.52
2024-01-15T03:30:18.932Z,95.88
2024-01-15T03:32:45.552Z,97.33
2024-01-15T03:35:12.152Z,96.68
2024-01-15T03:37:38.696Z,97.10
2024-01-15T03:40:06.085Z,97.73
2024-01-15T03:42:32.885Z,97.64
2024-01-15T03:44:59.548Z,97.23
2024-01-15T03:47:27.116Z,97.24
2024-01-15T03:49:53.756Z,98.56
2024-01-15T03:52:20.318Z,97.20
2024-01-15T03:54:46.897Z,99.02
2024-01-15T03:57:13.557Z,98.31
2024-01-15T03:59:42.682Z,97.50
2024-01-15T04:02:09.223Z,98.89
2024-01-15T04:04:35.757Z,98.15
2024-01-15T04:07:02.381Z,98.84
2024-01-15T04:09:28.948Z,98.28
2024-01-15T04:11:55.491Z,97.52
2024-01-15T04:14:21.992Z,98.80
2024-01-15T04:16:48.514Z,99.70
2024-01-15T04:19:15.161Z,99.85
2024-01-15T04:21:42.611Z,99.22
2024-01-15T04:24:09.225Z,99.60
2024-01-15T04:26:35.730Z,98.85
2024-01-15T04:29:02.317Z,98.05
2024-01-15T04:31:29.030Z,96.96
2024-01-15T04:33:55.913Z,96.68
2024-01-15T04:36:22.782Z,96.50
2024-01-15T04:38:49.869Z,96.13
2024-01-15T04:41:17.790Z,96.10
2024-01-15T04:43:44.333Z,94.92
2024-01-15T04:46:11.096Z,95.88
2024-01-15T04:48:37.843Z,95.51
2024-01-15T04:51:09.879Z,94.15
2024-01-15T04:53:36.926Z,95.01
2024-01-15T04:56:03.582Z,95.13
2024-01-15T04:58:30.496Z,95.25
2024-01-15T05:00:57.546Z,95.00
2024-01-15T05:03:24.489Z,94.60
2024-01-15T05:05:51.099Z,94.16
2024-01-15T05:08:17.733Z,93.80
2024-01-15T05:10:44.275Z,94.87
2024-01-15T05:13:10.948Z,94.53
2024-01-15T05:15:37.585Z,94.18
2024-01-15T05:18:04.268Z,94.85
2024-01-15T05:20:30.911Z,94.98
2024-01-15T05:22:57.657Z,94.66
2024-01-15T05:25:24.158Z,95.38
2024-01-15T05:27:50.863Z,95.01
2024-01-15T05:30:17.774Z,93.96
2024-01-15T05:32:44.673Z,93.84
2024-01-15T05:35:11.330Z,94.25
2024-01-15T05:37:37.834Z,92.66
2024-01-15T05:40:05.819Z,93.73
2024-01-15T05:42:33.249Z,92.97
2024-01-15T05:45:00.807Z,91.47
2024-01-15T05:47:27.448Z,92.19
2024-01-15T05:49:54.260Z,92.96
2024-01-15T05:52:22.132Z,91.94
2024-01-15T05:54:49.283Z,91.41
2024-01-15T05:57:15.900Z,91.50
2024-01-15T05:59:42.508Z,92.90
2024-01-15T06:02:09.061Z,92.80
2024-01-15T06:04:35.620Z,92.43
2024-01-15T06:07:02.486Z,92.55
2024-01-15T06:09:29.544Z,92.26
2024-01-15T06:11:56.455Z,93.03
2024-01-15T06:14:23.045Z,93.38
2024-01-15T06:16:50.411Z,95.08
2024-01-15T06:19:17.039Z,94.20
2024-01-15T06:21:43.633Z,93.56
2024-01-15T06:24:11.317Z,93.52
2024-01-15T06:26:37.951Z,93.43
2024-01-15T06:29:04.692Z,92.54
2024-01-15T06:31:31.326Z,92.33
2024-01-15T06:33:58.130Z,93.98
2024-01-15T06:36:24.765Z,93.21
2024-01-15T06:38:51.317Z,93.29
2024-01-15T06:41:17.803Z,93.15
2024-01-15T06:43:44.278Z,93.32
2024-01-15T06:46:10.837Z,92.92
2024-01-15T06:48:37.524Z,93.53
2024-01-15T06:51:04.368Z,93.07
2024-01-15T06:53:30.920Z,92.92
2024-01-15T06:55:57.452Z,93.40
2024-01-15T06:58:24.023Z,93.22
2024-01-15T07:00:50.619Z,92.92
2024-01-15T07:03:17.276Z,92.37
2024-01-15T07:05:44.043Z,92.74
2024-01-15T07:08:10.676Z,92.55
2024-01-15T07:10:37.619Z,91.66
2024-01-15T07:13:05.947Z,91.82
2024-01-15T07:15:32.728Z,91.92
2024-01-15T07:17:59.387Z,93.29
2024-01-15T07:20:25.918Z,92.93
2024-01-15T07:22:52.556Z,92.57
2024-01-15T07:25:19.069Z,92.83
2024-01-15T07:27:46.087Z,92.62
2024-01-15T07:30:13.649Z,91.02
2024-01-15T07:32:40.382Z,91.20
2024-01-15T07:35:07.171Z,91.43
2024-01-15T07:37:34.516Z,91.58
2024-01-15T07:40:02.031Z,91.07
2024-01-15T07:42:28.751Z,90.89
2024-01-15T07:44:55.275Z,91.18
2024-01-15T07:47:21.775Z,91.88
2024-01-15T07:49:48.492Z,92.17
2024-01-15T07:52:15.200Z,91.07
2024-01-15T07:54:42.079Z,90.85
2024-01-15T07:57:08.703Z,90.39
2024-01-15T07:59:36.903Z,90.91
2024-01-15T08:02:03.970Z,90.69
2024-01-15T08:04:30.875Z,90.77
2024-01-15T08:06:58.299Z,91.90
2024-01-15T08:09:25.258Z,91.77
2024-01-15T08:11:51.926Z,91.29
2024-01-15T08:14:19.019Z,91.28
2024-01-15T08:16:45.656Z,90.86
2024-01-15T08:19:12.778Z,92.06
2024-01-15T08:21:39.664Z,92.10
2024-01-15T08:24:06.659Z,91.90
2024-01-15T08:26:33.896Z,91.78
2024-01-15T08:29:00.801Z,91.46
2024-01-15T08:31:28.356Z,91.06
2024-01-15T08:33:55.092Z,91.11
2024-01-15T08:36:22.703Z,90.49
2024-01-15T08:38:49.188Z,91.69
2024-01-15T08:41:15.764Z,91.31
2024-01-15T08:43:42.271Z,91.83
2024-01-15T08:46:08.945Z,92.47
2024-01-15T08:48:35.753Z,92.69
2024-01-15T08:51:02.411Z,91.49
2024-01-15T08:53:29.117Z,91.76
2024-01-15T08:55:55.708Z,92.44
2024-01-15T08:58:24.835Z,91.36
2024-01-15T09:00:52.079Z,92.25
2024-01-15T09:03:19.073Z,91.44
2024-01-15T09:05:45.687Z,89.87
2024-01-15T09:08:12.179Z,90.48
2024-01-15T09:10:38.655Z,91.79
2024-01-15T09:13:05.846Z,90.26
2024-01-15T09:15:32.552Z,89.70
2024-01-15T09:18:00.131Z,91.39
2024-01-15T09:20:28.521Z,91.39
2024-01-15T09:22:55.095Z,89.63
2024-01-15T09:25:21.756Z,89.34
2024-01-15T09:27:48.468Z,89.17
2024-01-15T09:30:15.726Z,88.54
2024-01-15T09:32:42.511Z,89.50
2024-01-15T09:35:09.645Z,88.11
2024-01-15T09:37:44.911Z,88.13
2024-01-15T09:40:16.339Z,87.45
2024-01-15T09:42:44.199Z,87.50
2024-01-15T09:45:11.685Z,87.21
2024-01-15T09:47:41.754Z,87.67
2024-01-15T09:50:10.466Z,87.33
2024-01-15T09:52:37.873Z,87.49
2024-01-15T09:55:06.675Z,87.70
2024-01-15T09:57:34.003Z,89.29
2024-01-15T10:00:05.296Z,88.30
2024-01-15T10:02:32.276Z,87.98
2024-01-15T10:04:59.056Z,86.17
2024-01-15T10:07:27.228Z,87.03
2024-01-15T10:09:54.072Z,87.66
2024-01-15T10:12:23.089Z,87.42
2024-01-15T10:14:50.607Z,86.31
2024-01-15T10:17:18.263Z,86.68
2024-01-15T10:19:49.928Z,87.52
2024-01-15T10:22:19.407Z,85.66
2024-01-15T10:24:48.520Z,86.01
2024-01-15T10:27:16.025Z,86.87
2024-01-15T10:29:43.689Z,86.47
2024-01-15T10:32:11.080Z,86.40
2024-01-15T10:34:42.873Z,87.02
2024-01-15T10:37:10.570Z,85.43
2024-01-15T10:39:38.173Z,85.75
2024-01-15T10:42:05.415Z,85.70
2024-01-15T10:44:32.181Z,85.52
2024-01-15T10:46:58.662Z,85.65
2024-01-15T10:49:32.272Z,85.03
2024-01-15T10:52:00.418Z,84.35
2024-01-15T10:54:28.557Z,82.94
2024-01-15T10:56:57.576Z,83.74
2024-01-15T10:59:24.293Z,84.13
2024-01-15T11:01:55.050Z,83.90
2024-01-15T11:04:23.480Z,82.31
2024-01-15T11:06:58.076Z,82.73
2024-01-15T11:09:28.316Z,83.18
2024-01-15T11:12:09.028Z,83.41
2024-01-15T11:14:44.980Z,84.11
2024-01-15T11:17:12.214Z,84.03
2024-01-15T11:19:51.655Z,81.25
2024-01-15T11:22:30.490Z,81.53
2024-01-15T11:24:58.600Z,82.25
2024-01-15T11:27:48.986Z,81.58
2024-01-15T11:30:16.157Z,82.95
2024-01-15T11:32:43.708Z,81.91
2024-01-15T11:35:11.553Z,81.45
2024-01-15T11:37:53.365Z,80.80
2024-01-15T11:40:21.893Z,80.42
2024-01-15T11:42:49.750Z,80.39
2024-01-15T11:45:20.397Z,81.99
2024-01-15T11:48:08.813Z,81.61
2024-01-15T11:50:35.561Z,82.81
2024-01-15T11:53:07.113Z,83.23
2024-01-15T11:55:40.510Z,81.64
2024-01-15T11:58:11.092Z,82.40
2024-01-15T12:00:46.302Z,81.20
2024-01-15T12:03:13.153Z,83.02
2024-01-15T12:05:40.739Z,83.39
2024-01-15T12:08:13.545Z,83.71
2024-01-15T12:10:42.397Z,82.36
2024-01-15T12:13:14.223Z,82.34
2024-01-15T12:15:45.381Z,83.78
2024-01-15T12:18:14.826Z,82.08
2024-01-15T12:20:43.724Z,81.20
2024-01-15T12:23:14.653Z,79.69
2024-01-15T12:25:41.621Z,80.53
2024-01-15T12:28:08.412Z,80.53
2024-01-15T12:30:37.241Z,80.51
2024-01-15T12:33:05.415Z,80.52
2024-01-15T12:35:32.766Z,78.13
2024-01-15T12:38:03.609Z,78.35
2024-01-15T12:40:33.251Z,76.83
2024-01-15T12:42:59.857Z,76.90
2024-01-15T12:45:26.741Z,75.53
2024-01-15T12:47:53.891Z,74.38
2024-01-15T12:50:21.852Z,74.73
2024-01-15T12:52:48.723Z,75.13
2024-01-15T12:55:15.760Z,74.75
2024-01-15T12:57:42.607Z,74.51
2024-01-15T13:00:13.429Z,75.35
2024-01-15T13:02:44.405Z,74.67
2024-01-15T13:05:12.698Z,74.74
2024-01-15T13:07:41.117Z,75.01
2024-01-15T13:10:10.019Z,73.89
2024-01-15T13:12:36.863Z,72.69
2024-01-15T13:15:04.783Z,72.78
2024-01-15T13:17:31.816Z,73.72
2024-01-15T13:19:58.519Z,72.46
2024-01-15T13:22:30.835Z,73.25
2024-01-15T13:24:57.527Z,73.42
2024-01-15T13:27:24.319Z,71.84
2024-01-15T13:29:51.015Z,71.86
2024-01-15T13:32:25.719Z,71.42
2024-01-15T13:34:52.300Z,70.82
2024-01-15T13:37:18.877Z,70.57
2024-01-15T13:39:46.890Z,71.77
2024-01-15T13:42:13.467Z,72.27
2024-01-15T13:44:40.404Z,72.84
2024-01-15T13:47:07.143Z,72.16
2024-01-15T13:49:35.268Z,72.80
2024-01-15T13:52:01.958Z,73.59
2024-01-15T13:54:41.516Z,74.43
2024-01-15T13:57:15.384Z,73.78
2024-01-15T13:59:42.066Z,74.30
2024-01-15T14:02:09.070Z,75.24
2024-01-15T14:04:35.598Z,76.48
2024-01-15T14:07:02.340Z,75.05
2024-01-15T14:09:28.955Z,75.07
2024-01-15T14:11:55.734Z,74.93
2024-01-15T14:14:22.211Z,76.27
2024-01-15T14:16:48.754Z,75.13
2024-01-15T14:19:16.526Z,76.30
2024-01-15T14:21:43.141Z,76.17
2024-01-15T14:24:09.954Z,76.88
2024-01-15T14:26:36.462Z,76.84
2024-01-15T14:29:03.049Z,76.90
2024-01-15T14:31:30.217Z,77.13
2024-01-15T14:33:57.008Z,78.27
2024-01-15T14:36:23.610Z,78.20
2024-01-15T14:38:50.135Z,79.28
2024-01-15T14:41:18.051Z,80.36
2024-01-15T14:43:44.902Z,80.93
2024-01-15T14:46:12.551Z,81.88
2024-01-15T14:48:39.359Z,82.26
2024-01-15T14:51:06.700Z,83.03
2024-01-15T14:53:33.308Z,83.61
2024-01-15T14:55:59.981Z,84.29
2024-01-15T14:58:26.482Z,85.69
2024-01-15T15:00:53.117Z,86.97
2024-01-15T15:03:19.772Z,86.25
2024-01-15T15:05:46.563Z,86.75
2024-01-15T15:08:13.824Z,87.24
2024-01-15T15:10:43.369Z,87.65
2024-01-15T15:13:11.249Z,88.12
2024-01-15T15:15:37.999Z,89.34
2024-01-15T15:18:04.783Z,89.80
2024-01-15T15:20:31.570Z,92.79
2024-01-15T15:22:58.173Z,97.01
2024-01-15T15:25:24.793Z,100.00
2024-01-15T15:27:51.318Z,100.00
2024-01-15T15:30:18.062Z,100.00
2024-01-15T15:32:44.920Z,100.00
2024-01-15T15:35:12.032Z,100.00
2024-01-15T15:37:38.733Z,100.00
2024-01-15T15:40:09.611Z,100.00
2024-01-15T15:42:36.779Z,100.00
2024-01-15T15:45:04.619Z,100.00
2024-01-15T15:47:31.203Z,100.00
2024-01-15T15:49:58.386Z,100.00
2024-01-15T15:52:25.595Z,100.00
2024-01-15T15:54:53.136Z,100.00
2024-01-15T15:57:19.668Z,100.00
2024-01-15T15:59:46.178Z,100.00
2024-01-15T16:02:12.679Z,100.00
2024-01-15T16:04:39.634Z,100.00
2024-01-15T16:07:10.753Z,100.00
2024-01-15T16:09:37.682Z,100.00
2024-01-15T16:12:04.800Z,100.00
2024-01-15T16:14:31.399Z,100.00
2024-01-15T16:23:13.585Z,100.00
2024-01-15T16:23:26.954Z,100.00
2024-01-15T16:23:42.339Z,100.00
2024-01-15T16:25:19.780Z,100.00
2024-01-15T16:27:46.710Z,100.00
2024-01-15T16:30:24.706Z,100.00
2024-01-15T16:32:56.505Z,100.00
2024-01-15T16:35:23.581Z,100.00
2024-01-15T16:37:50.846Z,100.00
2024-01-15T16:40:17.867Z,100.00
2024-01-15T16:42:46.257Z,100.00
2024-01-15T16:45:13.048Z,100.00
2024-01-15T16:47:40.032Z,100.00
2024-01-15T16:50:06.844Z,100.00
2024-01-15T16:52:33.394Z,100.00
2024-01-15T16:55:00.277Z,100.00
2024-01-15T16:57:26.782Z,100.00
2024-01-15T16:59:53.302Z,100.00
2024-01-15T17:02:19.834Z,100.00
2024-01-15T17:04:46.394Z,100.00
2024-01-15T17:07:12.996Z,100.00
2024-01-15T17:09:39.510Z,100.00
2024-01-15T17:12:06.212Z,100.00
2024-01-15T17:14:32.852Z,100.00
2024-01-15T17:17:02.866Z,100.00
2024-01-15T17:19:29.527Z,100.00
2024-01-15T17:21:56.086Z,100.00
2024-01-15T17:24:22.785Z,100.00
2024-01-15T17:26:50.154Z,100.00
2024-01-15T17:29:17.586Z,100.00
2024-01-15T17:31:44.278Z,100.00
2024-01-15T17:34:11.579Z,100.00
2024-01-15T17:36:38.361Z,100.00
2024-01-15T17:39:07.120Z,100.00
2024-01-15T17:41:34.308Z,100.00
2024-01-15T17:44:02.134Z,100.00
2024-01-15T17:46:30.071Z,100.00
2024-01-15T17:49:03.631Z,100.00
2024-01-15T17:51:34.683Z,100.00
2024-01-15T17:54:02.110Z,100.00
2024-01-15T17:56:28.812Z,100.00
2024-01-15T17:58:56.855Z,100.00
2024-01-15T18:01:23.775Z,100.00
2024-01-15T18:03:51.586Z,100.00
2024-01-15T18:06:18.276Z,100.00
2024-01-15T18:08:45.402Z,100.00
2024-01-15T18:11:19.255Z,100.00
2024-01-15T18:13:46.769Z,100.00
2024-01-15T18:16:13.611Z,100.00
2024-01-15T18:18:40.753Z,100.00
2024-01-15T18:21:07.865Z,100.00
2024-01-15T18:23:35.158Z,100.00
2024-01-15T18:26:01.924Z,100.00
2024-01-15T18:28:28.523Z,100.00
2024-01-15T18:30:55.207Z,100.00
2024-01-15T18:33:24.103Z,100.00
2024-01-15T18:35:51.252Z,100.00
2024-01-15T18:38:17.957Z,100.00
2024-01-15T18:40:44.634Z,98.86
2024-01-15T18:43:11.263Z,99.36
2024-01-15T18:45:37.779Z,97.85
2024-01-15T18:48:04.581Z,97.60
2024-01-15T18:50:31.175Z,97.06
2024-01-15T18:52:57.837Z,95.72
2024-01-15T18:55:24.765Z,96.22
2024-01-15T18:57:52.068Z,95.22
2024-01-15T19:00:20.199Z,95.54
2024-01-15T19:02:46.822Z,96.06
2024-01-15T19:05:13.558Z,95.87
2024-01-15T19:07:40.155Z,94.94
2024-01-15T19:10:08.192Z,96.47
2024-01-15T19:12:34.822Z,94.90
2024-01-15T19:15:01.415Z,96.27
2024-01-15T19:17:28.044Z,95.92
2024-01-15T19:19:54.586Z,93.72
2024-01-15T19:22:21.142Z,94.47
2024-01-15T19:24:47.894Z,93.40
2024-01-15T19:27:14.747Z,94.42
2024-01-15T19:29:41.445Z,94.13
2024-01-15T19:32:08.130Z,94.58
2024-01-15T19:34:35.131Z,95.63
2024-01-15T19:37:02.229Z,94.34
2024-01-15T19:39:29.512Z,93.85
2024-01-15T19:41:56.958Z,93.91
2024-01-15T19:44:23.496Z,94.58
2024-01-15T19:46:50.100Z,94.25
2024-01-15T19:49:17.015Z,93.64
2024-01-15T19:51:44.600Z,93.57
2024-01-15T19:54:11.681Z,91.93
2024-01-15T19:56:39.090Z,92.23
2024-01-15T19:59:06.755Z,91.21
2024-01-15T20:01:33.647Z,90.55
2024-01-15T20:04:00.200Z,91.06
2024-01-15T20:06:26.862Z,91.33
2024-01-15T20:08:55.525Z,92.45
2024-01-15T20:11:22.417Z,91.36
2024-01-15T20:13:49.652Z,91.62
2024-01-15T20:16:16.304Z,92.72
2024-01-15T20:18:43.603Z,91.53
2024-01-15T20:21:11.110Z,90.48
2024-01-15T20:23:46.528Z,91.26
2024-01-15T20:26:21.540Z,91.85
2024-01-15T20:28:48.487Z,93.04
2024-01-15T20:31:15.325Z,92.53
2024-01-15T20:33:42.181Z,93.11
2024-01-15T20:36:14.204Z,92.65
2024-01-15T20:38:40.912Z,93.89
2024-01-15T20:41:08.001Z,93.85
2024-01-15T20:43:35.957Z,92.56
2024-01-15T20:46:03.246Z,91.62
2024-01-15T20:48:30.275Z,90.94
2024-01-15T20:50:58.730Z,90.29
2024-01-15T20:53:25.353Z,88.86
2024-01-15T20:55:51.932Z,88.81
2024-01-15T20:58:23.941Z,88.13
2024-01-15T21:00:51.295Z,88.19
2024-01-15T21:03:18.777Z,88.07
2024-01-15T21:05:45.578Z,88.88
2024-01-15T21:08:12.247Z,89.03
2024-01-15T21:10:38.779Z,89.78
2024-01-15T21:13:05.435Z,89.27
2024-01-15T21:15:31.988Z,89.40
2024-01-15T21:17:58.635Z,90.40
2024-01-15T21:20:25.331Z,90.84
2024-01-15T21:22:51.812Z,90.75
2024-01-15T21:25:18.354Z,91.12
2024-01-15T21:27:47.178Z,90.99
2024-01-15T21:30:15.997Z,90.54
2024-01-15T21:32:42.822Z,90.45
2024-01-15T21:35:11.688Z,90.77
2024-01-15T21:37:38.195Z,90.29
2024-01-15T21:40:08.349Z,89.20
2024-01-15T21:42:38.177Z,88.30
2024-01-15T21:45:06.628Z,88.04
2024-01-15T21:47:33.229Z,89.29
2024-01-15T21:50:00.307Z,88.57
2024-01-15T21:52:27.287Z,88.96
2024-01-15T21:54:53.958Z,89.76
2024-01-15T21:57:20.452Z,90.64
2024-01-15T21:59:46.968Z,91.28
2024-01-15T22:02:13.732Z,89.04
2024-01-15T22:04:40.219Z,88.90
2024-01-15T22:07:06.973Z,90.93
2024-01-15T22:09:33.806Z,90.00
2024-01-15T22:12:00.633Z,90.90
2024-01-15T22:14:28.586Z,90.75
2024-01-15T22:16:55.443Z,91.80
2024-01-15T22:19:22.028Z,91.32
2024-01-15T22:21:49.755Z,90.44
2024-01-15T22:24:19.180Z,91.17
2024-01-15T22:26:45.742Z,91.14
2024-01-15T22:29:12.354Z,91.86
2024-01-15T22:31:38.873Z,91.86
2024-01-15T22:34:05.657Z,91.39
2024-01-15T22:36:32.847Z,90.93
2024-01-15T22:38:59.368Z,91.38
2024-01-15T22:41:25.940Z,90.13
2024-01-15T22:43:52.421Z,91.47
2024-01-15T22:46:19.033Z,91.53
2024-01-15T22:48:45.706Z,89.97
2024-01-15T22:51:12.219Z,90.60
2024-01-15T22:53:38.769Z,90.25
2024-01-15T22:56:05.508Z,90.21
2024-01-15T22:58:31.987Z,88.98
2024-01-15T23:01:00.092Z,90.29
2024-01-15T23:03:26.864Z,88.41
2024-01-15T23:05:54.211Z,89.53
2024-01-15T23:08:20.754Z,89.55
2024-01-15T23:10:47.373Z,89.67
2024-01-15T23:13:14.992Z,88.61
2024-01-15T23:15:41.561Z,89.75
2024-01-15T23:18:08.288Z,89.21
2024-01-15T23:20:35.252Z,89.91
2024-01-15T23:23:02.308Z,88.56
2024-01-15T23:25:29.065Z,89.56
2024-01-15T23:27:55.619Z,87.26
2024-01-15T23:30:22.222Z,87.23
2024-01-15T23:32:49.413Z,88.11
2024-01-15T23:35:16.302Z,86.24
2024-01-15T23:37:42.838Z,87.27
2024-01-15T23:40:09.664Z,88.06
2024-01-15T23:42:36.263Z,87.07
2024-01-15T23:45:03.098Z,86.60
2024-01-15T23:47:29.654Z,87.21
2024-01-15T23:49:56.226Z,87.70
2024-01-15T23:52:22.706Z,87.63
2024-01-15T23:54:49.200Z,86.33
2024-01-15T23:57:15.886Z,87.18
2024-01-15T23:59:42.456Z,87.01
